sensor_id;sensor_type;location;lat;lon;timestamp;P1;durP1;ratioP1;P2;durP2;ratioP2
79468;SDS011;68936;52.526;13.326;2023-07-20T11:43:45;3.20;;;0.90;;
79468;SDS011;68936;52.526;13.326;2023-07-20T13:06:45;3.03;;;0.65;;
79468;SDS011;68936;52.526;13.326;2023-07-20T13:09:11;2.50;;;0.60;;
79468;SDS011;68936;52.526;13.326;2023-07-20T13:11:40;7.53;;;0.57;;
79468;SDS011;68936;52.526;13.326;2023-07-20T13:14:06;0.95;;;0.50;;
79468;SDS011;68936;52.526;13.326;2023-07-20T13:16:36;1.95;;;0.63;;
79468;SDS011;68936;52.526;13.326;2023-07-20T13:19:05;0.65;;;0.50;;
79468;SDS011;68936;52.526;13.326;2023-07-20T13:21:33;0.73;;;0.40;;
79468;SDS011;68936;52.526;13.326;2023-07-20T13:24:02;0.93;;;0.57;;
79468;SDS011;68936;52.526;13.326;2023-07-20T13:26:29;1.38;;;0.57;;
79468;SDS011;68936;52.526;13.326;2023-07-20T13:28:57;1.10;;;0.50;;
79468;SDS011;68936;52.526;13.326;2023-07-20T13:31:23;2.13;;;0.60;;
79468;SDS011;68936;52.526;13.326;2023-07-20T13:33:49;2.03;;;0.70;;
79468;SDS011;68936;52.526;13.326;2023-07-20T13:36:15;2.47;;;0.90;;
79468;SDS011;68936;52.526;13.326;2023-07-20T13:38:41;4.60;;;1.27;;
79468;SDS011;68936;52.526;13.326;2023-07-20T13:41:07;4.85;;;1.67;;
79468;SDS011;68936;52.526;13.326;2023-07-20T13:43:36;4.60;;;1.63;;
79468;SDS011;68936;52.526;13.326;2023-07-20T13:46:02;3.95;;;1.42;;
79468;SDS011;68936;52.526;13.326;2023-07-20T13:48:28;4.13;;;1.70;;
79468;SDS011;68936;52.526;13.326;2023-07-20T13:50:54;5.95;;;1.83;;
79468;SDS011;68936;52.526;13.326;2023-07-20T13:53:22;6.25;;;2.03;;
79468;SDS011;68936;52.526;13.326;2023-07-20T13:55:48;4.05;;;1.50;;
79468;SDS011;68936;52.526;13.326;2023-07-20T13:58:14;2.35;;;1.13;;
79468;SDS011;68936;52.526;13.326;2023-07-20T14:00:40;5.40;;;1.45;;
79468;SDS011;68936;52.526;13.326;2023-07-20T14:03:08;5.07;;;1.42;;
79468;SDS011;68936;52.526;13.326;2023-07-20T14:05:35;4.45;;;1.58;;
79468;SDS011;68936;52.526;13.326;2023-07-20T14:08:01;4.15;;;1.48;;
79468;SDS011;68936;52.526;13.326;2023-07-20T14:10:29;4.72;;;2.30;;
79468;SDS011;68936;52.526;13.326;2023-07-20T14:12:55;3.55;;;1.50;;
79468;SDS011;68936;52.526;13.326;2023-07-20T14:15:21;5.97;;;1.77;;
79468;SDS011;68936;52.526;13.326;2023-07-20T14:17:47;5.63;;;1.80;;
79468;SDS011;68936;52.526;13.326;2023-07-20T14:20:13;3.17;;;1.13;;
79468;SDS011;68936;52.526;13.326;2023-07-20T14:22:39;3.53;;;1.25;;
79468;SDS011;68936;52.526;13.326;2023-07-20T14:25:06;3.83;;;1.50;;
79468;SDS011;68936;52.526;13.326;2023-07-20T14:27:35;2.20;;;1.00;;
79468;SDS011;68936;52.526;13.326;2023-07-20T14:30:01;3.85;;;1.10;;
79468;SDS011;68936;52.526;13.326;2023-07-20T14:32:27;3.25;;;1.00;;
79468;SDS011;68936;52.526;13.326;2023-07-20T14:34:53;4.35;;;1.45;;
79468;SDS011;68936;52.526;13.326;2023-07-20T14:37:19;3.60;;;1.80;;
79468;SDS011;68936;52.526;13.326;2023-07-20T14:39:48;3.53;;;0.95;;
79468;SDS011;68936;52.526;13.326;2023-07-20T14:42:14;3.95;;;1.30;;
79468;SDS011;68936;52.526;13.326;2023-07-20T14:44:40;2.15;;;0.90;;
79468;SDS011;68936;52.526;13.326;2023-07-20T14:47:06;2.45;;;1.65;;
79468;SDS011;68936;52.526;13.326;2023-07-20T14:49:32;1.70;;;0.80;;
79468;SDS011;68936;52.526;13.326;2023-07-20T14:51:58;2.15;;;1.00;;
79468;SDS011;68936;52.526;13.326;2023-07-20T14:54:24;3.00;;;0.80;;
79468;SDS011;68936;52.526;13.326;2023-07-20T14:56:51;3.20;;;0.82;;
79468;SDS011;68936;52.526;13.326;2023-07-20T14:59:21;3.90;;;1.10;;
79468;SDS011;68936;52.526;13.326;2023-07-20T15:01:47;1.85;;;0.70;;
79468;SDS011;68936;52.526;13.326;2023-07-20T15:04:16;2.97;;;0.95;;
79468;SDS011;68936;52.526;13.326;2023-07-20T15:06:42;1.92;;;0.85;;
79468;SDS011;68936;52.526;13.326;2023-07-20T15:09:08;4.50;;;0.80;;
79468;SDS011;68936;52.526;13.326;2023-07-20T15:11:37;2.47;;;0.57;;
79468;SDS011;68936;52.526;13.326;2023-07-20T15:14:05;2.40;;;0.85;;
79468;SDS011;68936;52.526;13.326;2023-07-20T15:16:33;1.13;;;0.55;;
79468;SDS011;68936;52.526;13.326;2023-07-20T15:19:00;2.95;;;1.00;;
79468;SDS011;68936;52.526;13.326;2023-07-20T15:21:26;1.30;;;0.50;;
79468;SDS011;68936;52.526;13.326;2023-07-20T15:23:55;1.42;;;0.80;;
79468;SDS011;68936;52.526;13.326;2023-07-20T15:26:23;1.45;;;0.73;;
79468;SDS011;68936;52.526;13.326;2023-07-20T15:28:50;1.23;;;0.57;;
79468;SDS011;68936;52.526;13.326;2023-07-20T15:31:16;0.77;;;0.57;;
79468;SDS011;68936;52.526;13.326;2023-07-20T15:33:45;2.20;;;0.70;;
79468;SDS011;68936;52.526;13.326;2023-07-20T15:36:11;2.72;;;0.70;;
79468;SDS011;68936;52.526;13.326;2023-07-20T15:38:37;1.13;;;0.50;;
79468;SDS011;68936;52.526;13.326;2023-07-20T15:41:03;1.88;;;0.77;;
79468;SDS011;68936;52.526;13.326;2023-07-20T15:43:29;0.82;;;0.60;;
79468;SDS011;68936;52.526;13.326;2023-07-20T15:46:01;1.00;;;0.52;;
79468;SDS011;68936;52.526;13.326;2023-07-20T15:48:27;1.63;;;0.60;;
79468;SDS011;68936;52.526;13.326;2023-07-20T15:50:53;1.42;;;0.68;;
79468;SDS011;68936;52.526;13.326;2023-07-20T15:53:19;2.17;;;0.70;;
79468;SDS011;68936;52.526;13.326;2023-07-20T15:55:45;1.45;;;0.85;;
79468;SDS011;68936;52.526;13.326;2023-07-20T15:58:19;2.60;;;0.77;;
79468;SDS011;68936;52.526;13.326;2023-07-20T16:00:45;0.50;;;0.40;;
79468;SDS011;68936;52.526;13.326;2023-07-20T16:03:13;1.90;;;0.80;;
79468;SDS011;68936;52.526;13.326;2023-07-20T16:05:42;1.95;;;0.60;;
79468;SDS011;68936;52.526;13.326;2023-07-20T16:08:11;0.75;;;0.50;;
79468;SDS011;68936;52.526;13.326;2023-07-20T16:10:39;1.60;;;0.50;;
79468;SDS011;68936;52.526;13.326;2023-07-20T16:13:07;1.17;;;0.55;;
79468;SDS011;68936;52.526;13.326;2023-07-20T16:15:36;2.28;;;0.63;;
79468;SDS011;68936;52.526;13.326;2023-07-20T16:18:02;1.25;;;0.52;;
79468;SDS011;68936;52.526;13.326;2023-07-20T16:20:31;3.75;;;0.55;;
79468;SDS011;68936;52.526;13.326;2023-07-20T16:22:57;0.85;;;0.75;;
79468;SDS011;68936;52.526;13.326;2023-07-20T16:25:23;1.08;;;0.60;;
79468;SDS011;68936;52.526;13.326;2023-07-20T16:27:49;0.93;;;0.55;;
79468;SDS011;68936;52.526;13.326;2023-07-20T16:30:15;2.30;;;1.15;;
79468;SDS011;68936;52.526;13.326;2023-07-20T16:32:41;1.48;;;0.60;;
79468;SDS011;68936;52.526;13.326;2023-07-20T16:35:08;2.70;;;1.17;;
79468;SDS011;68936;52.526;13.326;2023-07-20T16:37:34;0.85;;;0.60;;
79468;SDS011;68936;52.526;13.326;2023-07-20T16:40:00;1.10;;;0.60;;
79468;SDS011;68936;52.526;13.326;2023-07-20T16:42:32;1.98;;;0.80;;
79468;SDS011;68936;52.526;13.326;2023-07-20T16:45:00;2.08;;;0.77;;
79468;SDS011;68936;52.526;13.326;2023-07-20T16:47:29;1.17;;;0.70;;
79468;SDS011;68936;52.526;13.326;2023-07-20T16:49:55;3.05;;;0.88;;
79468;SDS011;68936;52.526;13.326;2023-07-20T16:52:21;3.13;;;1.20;;
79468;SDS011;68936;52.526;13.326;2023-07-20T16:54:50;1.73;;;0.80;;
79468;SDS011;68936;52.526;13.326;2023-07-20T16:57:16;1.40;;;0.70;;
79468;SDS011;68936;52.526;13.326;2023-07-20T16:59:44;2.58;;;1.30;;
79468;SDS011;68936;52.526;13.326;2023-07-20T17:02:10;4.00;;;0.90;;
79468;SDS011;68936;52.526;13.326;2023-07-20T17:04:36;3.33;;;1.10;;
79468;SDS011;68936;52.526;13.326;2023-07-20T17:07:02;2.63;;;1.00;;
79468;SDS011;68936;52.526;13.326;2023-07-20T17:09:29;2.20;;;1.17;;
79468;SDS011;68936;52.526;13.326;2023-07-20T17:11:57;3.00;;;0.88;;
79468;SDS011;68936;52.526;13.326;2023-07-20T17:14:23;1.73;;;0.77;;
79468;SDS011;68936;52.526;13.326;2023-07-20T17:16:49;2.60;;;1.20;;
79468;SDS011;68936;52.526;13.326;2023-07-20T17:19:16;0.70;;;0.65;;
79468;SDS011;68936;52.526;13.326;2023-07-20T17:21:43;2.60;;;0.60;;
79468;SDS011;68936;52.526;13.326;2023-07-20T17:24:10;2.15;;;0.80;;
79468;SDS011;68936;52.526;13.326;2023-07-20T17:26:36;2.25;;;0.75;;
79468;SDS011;68936;52.526;13.326;2023-07-20T17:29:02;2.35;;;0.70;;
79468;SDS011;68936;52.526;13.326;2023-07-20T17:31:29;1.55;;;0.60;;
79468;SDS011;68936;52.526;13.326;2023-07-20T17:33:55;5.85;;;0.70;;
79468;SDS011;68936;52.526;13.326;2023-07-20T17:36:24;1.40;;;0.95;;
79468;SDS011;68936;52.526;13.326;2023-07-20T17:38:50;2.15;;;0.80;;
79468;SDS011;68936;52.526;13.326;2023-07-20T17:41:16;1.48;;;0.70;;
79468;SDS011;68936;52.526;13.326;2023-07-20T17:43:42;3.45;;;1.10;;
79468;SDS011;68936;52.526;13.326;2023-07-20T17:46:08;1.77;;;0.98;;
79468;SDS011;68936;52.526;13.326;2023-07-20T17:48:34;1.52;;;0.90;;
79468;SDS011;68936;52.526;13.326;2023-07-20T17:51:00;2.05;;;0.93;;
79468;SDS011;68936;52.526;13.326;2023-07-20T17:53:26;2.47;;;1.30;;
79468;SDS011;68936;52.526;13.326;2023-07-20T17:55:52;1.83;;;0.98;;
79468;SDS011;68936;52.526;13.326;2023-07-20T17:58:18;2.35;;;0.98;;
79468;SDS011;68936;52.526;13.326;2023-07-20T18:00:44;2.95;;;0.98;;
79468;SDS011;68936;52.526;13.326;2023-07-20T18:03:10;2.40;;;1.27;;
79468;SDS011;68936;52.526;13.326;2023-07-20T18:05:37;1.88;;;0.90;;
79468;SDS011;68936;52.526;13.326;2023-07-20T18:08:03;7.78;;;4.80;;
79468;SDS011;68936;52.526;13.326;2023-07-20T18:10:29;6.78;;;2.38;;
79468;SDS011;68936;52.526;13.326;2023-07-20T18:12:55;5.10;;;2.70;;
79468;SDS011;68936;52.526;13.326;2023-07-20T18:15:21;10.27;;;3.83;;
79468;SDS011;68936;52.526;13.326;2023-07-20T18:17:47;14.95;;;3.95;;
79468;SDS011;68936;52.526;13.326;2023-07-20T18:20:13;6.57;;;2.53;;
79468;SDS011;68936;52.526;13.326;2023-07-20T18:22:41;8.23;;;3.88;;
79468;SDS011;68936;52.526;13.326;2023-07-20T18:25:08;32.78;;;16.42;;
79468;SDS011;68936;52.526;13.326;2023-07-20T18:27:34;20.98;;;11.75;;
79468;SDS011;68936;52.526;13.326;2023-07-20T18:30:02;13.63;;;6.50;;
79468;SDS011;68936;52.526;13.326;2023-07-20T18:32:28;12.88;;;6.47;;
79468;SDS011;68936;52.526;13.326;2023-07-20T18:34:54;6.43;;;3.03;;
79468;SDS011;68936;52.526;13.326;2023-07-20T18:37:22;4.72;;;2.35;;
79468;SDS011;68936;52.526;13.326;2023-07-20T18:39:51;7.25;;;2.58;;
79468;SDS011;68936;52.526;13.326;2023-07-20T18:42:22;4.45;;;2.38;;
79468;SDS011;68936;52.526;13.326;2023-07-20T18:44:49;5.50;;;1.52;;
79468;SDS011;68936;52.526;13.326;2023-07-20T18:47:15;4.40;;;1.40;;
79468;SDS011;68936;52.526;13.326;2023-07-20T18:49:42;4.78;;;1.40;;
79468;SDS011;68936;52.526;13.326;2023-07-20T18:52:08;2.20;;;1.10;;
79468;SDS011;68936;52.526;13.326;2023-07-20T18:54:36;1.50;;;1.13;;
79468;SDS011;68936;52.526;13.326;2023-07-20T18:57:02;4.03;;;1.83;;
79468;SDS011;68936;52.526;13.326;2023-07-20T18:59:33;9.52;;;4.88;;
79468;SDS011;68936;52.526;13.326;2023-07-20T19:01:59;5.75;;;2.58;;
79468;SDS011;68936;52.526;13.326;2023-07-20T19:04:25;7.20;;;1.75;;
79468;SDS011;68936;52.526;13.326;2023-07-20T19:06:54;4.20;;;2.28;;
79468;SDS011;68936;52.526;13.326;2023-07-20T19:09:20;6.80;;;1.90;;
79468;SDS011;68936;52.526;13.326;2023-07-20T19:11:48;4.30;;;1.98;;
79468;SDS011;68936;52.526;13.326;2023-07-20T19:14:17;4.20;;;1.60;;
79468;SDS011;68936;52.526;13.326;2023-07-20T19:16:44;3.35;;;1.48;;
79468;SDS011;68936;52.526;13.326;2023-07-20T19:19:12;2.17;;;0.90;;
79468;SDS011;68936;52.526;13.326;2023-07-20T19:21:39;3.22;;;1.20;;
79468;SDS011;68936;52.526;13.326;2023-07-20T19:24:05;2.88;;;1.20;;
79468;SDS011;68936;52.526;13.326;2023-07-20T19:26:32;4.35;;;1.15;;
79468;SDS011;68936;52.526;13.326;2023-07-20T19:28:58;4.50;;;1.23;;
79468;SDS011;68936;52.526;13.326;2023-07-20T19:31:24;3.50;;;0.95;;
79468;SDS011;68936;52.526;13.326;2023-07-20T19:33:50;3.72;;;0.80;;
79468;SDS011;68936;52.526;13.326;2023-07-20T19:36:16;1.33;;;0.70;;
79468;SDS011;68936;52.526;13.326;2023-07-20T19:38:44;1.70;;;0.80;;
79468;SDS011;68936;52.526;13.326;2023-07-20T19:41:10;2.33;;;0.93;;
79468;SDS011;68936;52.526;13.326;2023-07-20T19:43:36;3.25;;;1.17;;
79468;SDS011;68936;52.526;13.326;2023-07-20T19:46:02;3.70;;;1.30;;
79468;SDS011;68936;52.526;13.326;2023-07-20T19:48:28;2.42;;;1.30;;
79468;SDS011;68936;52.526;13.326;2023-07-20T19:50:55;3.40;;;1.45;;
79468;SDS011;68936;52.526;13.326;2023-07-20T19:53:21;3.75;;;0.70;;
79468;SDS011;68936;52.526;13.326;2023-07-20T19:55:47;2.50;;;0.85;;
79468;SDS011;68936;52.526;13.326;2023-07-20T19:58:13;1.48;;;0.70;;
79468;SDS011;68936;52.526;13.326;2023-07-20T20:00:39;1.65;;;0.98;;
79468;SDS011;68936;52.526;13.326;2023-07-20T20:03:08;2.90;;;0.80;;
79468;SDS011;68936;52.526;13.326;2023-07-20T20:05:34;2.63;;;0.98;;
79468;SDS011;68936;52.526;13.326;2023-07-20T20:08:05;3.50;;;1.23;;
79468;SDS011;68936;52.526;13.326;2023-07-20T20:10:31;2.47;;;0.75;;
79468;SDS011;68936;52.526;13.326;2023-07-20T20:12:58;5.00;;;0.82;;
79468;SDS011;68936;52.526;13.326;2023-07-20T20:15:24;2.17;;;0.90;;
79468;SDS011;68936;52.526;13.326;2023-07-20T20:17:52;1.65;;;0.95;;
79468;SDS011;68936;52.526;13.326;2023-07-20T20:20:22;2.20;;;0.75;;
79468;SDS011;68936;52.526;13.326;2023-07-20T20:22:48;1.52;;;0.70;;
79468;SDS011;68936;52.526;13.326;2023-07-20T20:25:18;4.68;;;0.70;;
79468;SDS011;68936;52.526;13.326;2023-07-20T20:27:44;3.15;;;0.70;;
79468;SDS011;68936;52.526;13.326;2023-07-20T20:30:10;2.22;;;0.90;;
79468;SDS011;68936;52.526;13.326;2023-07-20T20:32:36;1.85;;;0.75;;
79468;SDS011;68936;52.526;13.326;2023-07-20T20:35:06;1.58;;;0.50;;
79468;SDS011;68936;52.526;13.326;2023-07-20T20:37:33;3.50;;;0.63;;
79468;SDS011;68936;52.526;13.326;2023-07-20T20:40:03;7.38;;;0.88;;
79468;SDS011;68936;52.526;13.326;2023-07-20T20:42:31;2.25;;;0.63;;
79468;SDS011;68936;52.526;13.326;2023-07-20T20:44:57;5.05;;;0.85;;
79468;SDS011;68936;52.526;13.326;2023-07-20T20:47:23;1.55;;;0.63;;
79468;SDS011;68936;52.526;13.326;2023-07-20T20:49:49;3.28;;;0.70;;
79468;SDS011;68936;52.526;13.326;2023-07-20T20:52:18;1.52;;;0.30;;
79468;SDS011;68936;52.526;13.326;2023-07-20T20:54:44;2.03;;;0.73;;
79468;SDS011;68936;52.526;13.326;2023-07-20T20:57:14;4.03;;;1.30;;
79468;SDS011;68936;52.526;13.326;2023-07-20T20:59:42;2.28;;;1.40;;
79468;SDS011;68936;52.526;13.326;2023-07-20T21:02:12;2.30;;;1.10;;
79468;SDS011;68936;52.526;13.326;2023-07-20T21:04:43;2.00;;;0.80;;
79468;SDS011;68936;52.526;13.326;2023-07-20T21:07:10;3.63;;;1.00;;
79468;SDS011;68936;52.526;13.326;2023-07-20T21:09:39;2.05;;;1.10;;
79468;SDS011;68936;52.526;13.326;2023-07-20T21:12:07;3.33;;;1.02;;
79468;SDS011;68936;52.526;13.326;2023-07-20T21:14:33;2.60;;;1.35;;
79468;SDS011;68936;52.526;13.326;2023-07-20T21:16:59;2.60;;;1.15;;
79468;SDS011;68936;52.526;13.326;2023-07-20T21:19:28;2.42;;;1.38;;
79468;SDS011;68936;52.526;13.326;2023-07-20T21:21:54;2.88;;;1.20;;
79468;SDS011;68936;52.526;13.326;2023-07-20T21:24:20;1.63;;;1.10;;
79468;SDS011;68936;52.526;13.326;2023-07-20T21:26:49;2.72;;;1.38;;
79468;SDS011;68936;52.526;13.326;2023-07-20T21:29:15;3.13;;;1.30;;
79468;SDS011;68936;52.526;13.326;2023-07-20T21:31:41;9.73;;;1.83;;
79468;SDS011;68936;52.526;13.326;2023-07-20T21:34:07;4.65;;;1.80;;
79468;SDS011;68936;52.526;13.326;2023-07-20T21:36:34;1.83;;;1.10;;
79468;SDS011;68936;52.526;13.326;2023-07-20T21:39:00;2.47;;;1.38;;
79468;SDS011;68936;52.526;13.326;2023-07-20T21:41:26;5.72;;;1.70;;
79468;SDS011;68936;52.526;13.326;2023-07-20T21:43:57;2.90;;;1.60;;
79468;SDS011;68936;52.526;13.326;2023-07-20T21:46:26;2.33;;;1.63;;
79468;SDS011;68936;52.526;13.326;2023-07-20T21:48:54;2.67;;;1.10;;
79468;SDS011;68936;52.526;13.326;2023-07-20T21:51:22;3.45;;;1.40;;
79468;SDS011;68936;52.526;13.326;2023-07-20T21:53:48;4.70;;;1.80;;
79468;SDS011;68936;52.526;13.326;2023-07-20T21:56:14;5.43;;;1.80;;
79468;SDS011;68936;52.526;13.326;2023-07-20T21:58:43;7.80;;;1.90;;
79468;SDS011;68936;52.526;13.326;2023-07-20T22:01:11;7.20;;;1.85;;
79468;SDS011;68936;52.526;13.326;2023-07-20T22:03:37;11.45;;;1.73;;
79468;SDS011;68936;52.526;13.326;2023-07-20T22:06:03;11.10;;;2.17;;
79468;SDS011;68936;52.526;13.326;2023-07-20T22:08:29;5.95;;;1.75;;
79468;SDS011;68936;52.526;13.326;2023-07-20T22:10:55;8.95;;;2.22;;
79468;SDS011;68936;52.526;13.326;2023-07-20T22:13:21;7.97;;;1.70;;
79468;SDS011;68936;52.526;13.326;2023-07-20T22:15:47;5.20;;;1.58;;
79468;SDS011;68936;52.526;13.326;2023-07-20T22:18:17;6.07;;;1.38;;
79468;SDS011;68936;52.526;13.326;2023-07-20T22:20:43;7.20;;;2.10;;
79468;SDS011;68936;52.526;13.326;2023-07-20T22:23:09;4.53;;;1.23;;
79468;SDS011;68936;52.526;13.326;2023-07-20T22:25:37;8.48;;;1.83;;
79468;SDS011;68936;52.526;13.326;2023-07-20T22:28:03;9.18;;;2.10;;
79468;SDS011;68936;52.526;13.326;2023-07-20T22:30:29;6.65;;;2.50;;
79468;SDS011;68936;52.526;13.326;2023-07-20T22:32:55;4.50;;;1.38;;
79468;SDS011;68936;52.526;13.326;2023-07-20T22:35:21;6.95;;;1.45;;
79468;SDS011;68936;52.526;13.326;2023-07-20T22:37:51;7.93;;;2.83;;
79468;SDS011;68936;52.526;13.326;2023-07-20T22:40:17;8.00;;;2.40;;
79468;SDS011;68936;52.526;13.326;2023-07-20T22:42:48;6.60;;;2.08;;
79468;SDS011;68936;52.526;13.326;2023-07-20T22:45:14;8.30;;;2.20;;
79468;SDS011;68936;52.526;13.326;2023-07-20T22:47:40;4.38;;;2.17;;
79468;SDS011;68936;52.526;13.326;2023-07-20T22:50:07;6.40;;;2.90;;
79468;SDS011;68936;52.526;13.326;2023-07-20T22:52:33;4.50;;;2.33;;
79468;SDS011;68936;52.526;13.326;2023-07-20T22:54:59;8.07;;;2.38;;
79468;SDS011;68936;52.526;13.326;2023-07-20T22:57:25;9.63;;;2.25;;
79468;SDS011;68936;52.526;13.326;2023-07-20T22:59:56;6.47;;;3.10;;
79468;SDS011;68936;52.526;13.326;2023-07-20T23:02:22;4.13;;;2.47;;
79468;SDS011;68936;52.526;13.326;2023-07-20T23:04:48;4.43;;;1.90;;
79468;SDS011;68936;52.526;13.326;2023-07-20T23:07:20;22.95;;;13.98;;
79468;SDS011;68936;52.526;13.326;2023-07-20T23:09:46;11.85;;;6.50;;
79468;SDS011;68936;52.526;13.326;2023-07-20T23:12:15;8.05;;;3.97;;
79468;SDS011;68936;52.526;13.326;2023-07-20T23:14:41;4.03;;;2.25;;
79468;SDS011;68936;52.526;13.326;2023-07-20T23:17:07;11.63;;;3.35;;
79468;SDS011;68936;52.526;13.326;2023-07-20T23:19:36;4.55;;;2.50;;
79468;SDS011;68936;52.526;13.326;2023-07-20T23:22:03;4.72;;;2.55;;
79468;SDS011;68936;52.526;13.326;2023-07-20T23:24:29;8.82;;;3.47;;
79468;SDS011;68936;52.526;13.326;2023-07-20T23:26:55;6.18;;;3.78;;
79468;SDS011;68936;52.526;13.326;2023-07-20T23:29:22;4.95;;;2.40;;
79468;SDS011;68936;52.526;13.326;2023-07-20T23:31:50;4.25;;;1.98;;
79468;SDS011;68936;52.526;13.326;2023-07-20T23:34:16;3.50;;;1.75;;
79468;SDS011;68936;52.526;13.326;2023-07-20T23:36:43;4.18;;;2.08;;
79468;SDS011;68936;52.526;13.326;2023-07-20T23:39:09;6.03;;;1.88;;
79468;SDS011;68936;52.526;13.326;2023-07-20T23:41:35;4.05;;;1.95;;
79468;SDS011;68936;52.526;13.326;2023-07-20T23:44:03;7.93;;;2.83;;
79468;SDS011;68936;52.526;13.326;2023-07-20T23:46:29;4.10;;;2.17;;
79468;SDS011;68936;52.526;13.326;2023-07-20T23:48:55;5.43;;;2.50;;
79468;SDS011;68936;52.526;13.326;2023-07-20T23:51:21;3.35;;;1.90;;
79468;SDS011;68936;52.526;13.326;2023-07-20T23:53:49;3.35;;;1.58;;
79468;SDS011;68936;52.526;13.326;2023-07-20T23:56:20;2.20;;;1.30;;
79468;SDS011;68936;52.526;13.326;2023-07-20T23:58:46;6.03;;;3.17;;
